Log in

NYSE:FBMFoundation Building Materials Institutional Ownership

$16.02
+0.91 (+6.02 %)
(As of 06/5/2020 04:00 PM ET)
Add
Compare
Today's Range
$15.68
Now: $16.02
$16.28
50-Day Range
$9.04
MA: $11.77
$14.85
52-Week Range
$7.99
Now: $16.02
$22.14
Volume159,392 shs
Average Volume257,021 shs
Market Capitalization$692.06 million
P/E Ratio13.58
Dividend YieldN/A
Beta1.69

Institutional Ownership

Institutional Ownership Changes (13F Filings) for Foundation Building Materials (NYSE:FBM)

Institutional Ownership Percentage: 96.87%

Institutional Buying and Selling by Quarter


Foundation Building Materials (NYSE FBM) Institutional Buying and Selling

Reporting DateHedge FundShares HeldMarket Value% of PortfolioQuarterly Change in SharesOwnership in Company
5/28/2020State of Tennessee Treasury Department13,719$0.14M0.0%N/A0.032%
5/22/2020Clearbridge Investments LLC851,230$8.76M0.0%-2.6%1.970%
5/19/2020APG Asset Management N.V.201,303$2.07M0.0%-49.5%0.466%
5/18/2020Scopus Asset Management L.P.117,402$1.21M0.1%-65.1%0.272%
5/15/2020AQR Capital Management LLC130,313$1.34M0.0%+5.0%0.302%
5/15/2020Squarepoint Ops LLC41,277$0.43M0.0%-75.6%0.096%
5/15/2020Invesco Ltd.162,277$1.67M0.0%-23.5%0.376%
5/15/2020Morgan Stanley50,033$0.51M0.0%-87.9%0.116%
5/15/2020APG Asset Management N.V.201,303$2.07M0.0%-49.5%0.466%
5/15/2020Two Sigma Advisers LP298,504$3.07M0.0%-16.5%0.691%
5/14/2020Wells Fargo & Company MN45,090$0.46M0.0%+17.6%0.104%
5/14/2020Geode Capital Management LLC267,805$2.76M0.0%+11.2%0.623%
5/14/2020Legal & General Group Plc45,594$0.47M0.0%+84.3%0.106%
5/14/2020Deutsche Bank AG10,057$0.10M0.0%-95.9%0.023%
5/14/2020Alliancebernstein L.P.34,277$0.35M0.0%+32.4%0.080%
5/14/2020M&T Bank Corp20,175$0.21M0.0%+46.5%0.047%
5/14/2020AJO LP92,467$0.95M0.0%-41.1%0.215%
5/14/2020Nuveen Asset Management LLC726,910$7.48M0.0%-16.0%1.690%
5/13/2020Parametric Portfolio Associates LLC43,411$0.45M0.0%-17.8%0.101%
5/13/2020BNP Paribas Arbitrage SA7,491$77K0.0%+27.5%0.017%
5/13/2020Federated Hermes Inc.301,623$3.10M0.0%+5.1%0.701%
5/13/2020Globeflex Capital L P106,288$1.09M0.3%-5.8%0.247%
5/13/2020Dynamic Technology Lab Private Ltd27,313$0.28M0.1%+133.6%0.063%
5/12/2020Systematic Financial Management LP25,620$0.26M0.0%-12.7%0.060%
5/12/2020Citigroup Inc.6,714$69K0.0%-38.1%0.016%
5/12/2020Principal Financial Group Inc.134,252$1.38M0.0%-4.0%0.312%
5/12/2020Victory Capital Management Inc.90,838$0.94M0.0%+36.8%0.211%
5/12/2020Smith Asset Management Group LP9,440$97K0.0%-64.3%0.022%
5/12/2020JPMorgan Chase & Co.193,584$1.99M0.0%+7.7%0.450%
5/12/2020Virginia Retirement Systems ET AL27,800$0.29M0.0%+7.3%0.065%
5/11/2020Bell & Brown Wealth Advisors LLC58,054$0.70M0.6%+26.2%0.135%
5/11/2020Acadian Asset Management LLC674,693$6.94M0.0%+1.4%1.569%
5/11/2020State Street Corp600,839$6.18M0.0%+17.0%1.397%
5/11/2020WINTON GROUP Ltd14,130$0.15M0.0%-70.7%0.033%
5/11/2020Martingale Asset Management L P173,159$1.78M0.0%+67.5%0.403%
5/11/2020Cornercap Investment Counsel Inc.70,705$0.73M0.1%+40.8%0.164%
5/8/2020Hancock Whitney Corp10,460$0.11M0.0%N/A0.024%
5/8/2020Alberta Investment Management Corp35,300$0.36M0.0%-21.4%0.082%
5/8/2020IndexIQ Advisors LLC17,749$0.18M0.0%N/A0.041%
5/6/2020Russell Investments Group Ltd.67,437$0.69M0.0%-1.5%0.157%
5/6/2020Rhumbline Advisers59,057$0.61M0.0%+30.1%0.137%
5/5/2020Stone Ridge Asset Management LLC28,553$0.29M0.0%-10.4%0.066%
5/5/2020Seizert Capital Partners LLC103,662$1.07M0.1%+37.9%0.241%
5/5/2020Aperio Group LLC13,148$0.14M0.0%N/A0.031%
5/4/2020Los Angeles Capital Management & Equity Research Inc.43,680$0.45M0.0%-34.0%0.102%
5/4/2020Victory Capital Management Inc.90,838$0.94M0.0%+36.8%0.211%
5/4/2020Cadence Capital Management LLC107,621$1.11M0.2%-5.0%0.250%
5/1/2020Paragon Capital Management LLC3,700$38K0.0%N/A0.009%
5/1/2020BlackRock Inc.3,460,953$35.62M0.0%+0.7%8.046%
5/1/2020Comerica Bank17,205$0.17M0.0%N/A0.040%
5/1/2020UBS Group AG192,177$1.98M0.0%-406.2%0.447%
4/30/2020Bessemer Group Inc.46,900$0.48M0.0%+694.9%0.109%
4/29/2020New York State Teachers Retirement System11,848$0.12M0.0%+70.5%0.028%
4/27/2020Texas Permanent School Fund14,961$0.15M0.0%+24.1%0.035%
4/23/2020Pacer Advisors Inc.13,623$0.14M0.0%N/A0.032%
4/21/2020Raymond James & Associates60,267$0.62M0.0%+15.2%0.140%
4/21/2020Raymond James Financial Services Advisors Inc.18,186$0.19M0.0%-39.9%0.042%
4/20/2020Oregon Public Employees Retirement Fund7,200$74K0.0%N/A0.017%
4/9/2020Dalton Greiner Hartman Maher & Co.185,622$1.91M0.2%+3.1%0.432%
4/6/2020State of Alaska Department of Revenue15,730$0.16M0.0%+18.2%0.037%
3/5/2020Nuveen Asset Management LLC865,680$16.75M0.0%+35.6%2.013%
3/2/2020Connor Clark & Lunn Investment Management Ltd.88,475$1.71M0.0%+8.7%0.206%
2/20/2020Geode Capital Management LLC240,892$4.66M0.0%+7.3%0.560%
2/19/2020Mason Street Advisors LLC6,015$0.12M0.0%N/A0.014%
2/18/2020Algert Global LLC35,396$0.69M0.2%-66.9%0.082%
2/18/2020Alliancebernstein L.P.25,896$0.50M0.0%-7.8%0.060%
2/18/2020AXA17,400$0.34M0.0%N/A0.040%
2/18/2020Man Group plc255,252$4.94M0.0%+38.4%0.594%
2/17/2020Alberta Investment Management Corp44,900$0.87M0.0%-37.2%0.104%
2/14/2020Caxton Associates LP17,990$0.35M0.0%N/A0.042%
2/14/2020Point72 Hong Kong Ltd2,467$48K0.0%N/A0.006%
2/14/2020Cubist Systematic Strategies LLC49,616$0.96M0.0%+40.5%0.115%
2/14/2020AQR Capital Management LLC124,138$2.40M0.0%+197.2%0.289%
2/14/2020Bank of America Corp DE136,536$2.64M0.0%-79.1%0.318%
2/14/2020UBS Asset Management Americas Inc.31,314$0.61M0.0%+87.3%0.073%
2/14/2020Jacobs Levy Equity Management Inc.263,937$5.11M0.1%+8.4%0.614%
2/14/2020Marshall Wace LLP174,031$3.37M0.0%-48.3%0.405%
2/14/2020Bank of New York Mellon Corp223,693$4.33M0.0%+270.1%0.520%
2/14/2020Knights of Columbus Asset Advisors LLC56,663$1.10M0.1%N/A0.132%
2/14/2020Dynamic Technology Lab Private Ltd11,692$0.23M0.0%-77.3%0.027%
2/14/2020Public Sector Pension Investment Board39,700$0.77M0.0%-48.8%0.092%
2/13/2020Lone Star Global Acquisitions Ltd.20,298,432$392.78M43.0%-4.4%47.217%
2/13/2020Meeder Asset Management Inc.2,464$48K0.0%-71.4%0.006%
2/13/2020Oxford Asset Management LLP11,602$0.22M0.0%-92.1%0.027%
2/13/2020Jefferies Group LLC11,303$0.22M0.0%-37.5%0.026%
2/13/2020Thrivent Financial for Lutherans14,034$0.27M0.0%N/A0.033%
2/13/2020Summit Global Investments44,050$0.85M0.1%-7.9%0.102%
2/13/2020Renaissance Technologies LLC1,508,100$29.18M0.0%+38.0%3.508%
2/12/2020Connor Clark & Lunn Investment Management Ltd.88,475$1.71M0.0%+8.7%0.206%
2/12/2020Trexquant Investment LP24,757$0.48M0.0%N/A0.058%
2/12/2020AJO LP157,024$3.04M0.0%+1,591.0%0.365%
2/12/2020NumerixS Investment Technologies Inc7,300$0.14M0.0%N/A0.017%
2/12/2020Credit Suisse AG85,427$1.65M0.0%-25.9%0.199%
2/12/2020Raymond James & Associates52,334$1.01M0.0%+291.1%0.122%
2/12/2020Raymond James Financial Services Advisors Inc.30,275$0.59M0.0%N/A0.070%
2/12/2020Citigroup Inc.10,838$0.21M0.0%+432.6%0.025%
2/11/2020Great West Life Assurance Co. Can2,830$54K0.0%+233.3%0.007%
2/11/2020Prudential Financial Inc.213,554$4.13M0.0%+11.7%0.497%
2/11/2020FCA Corp TX10,000$0.19M0.1%N/A0.023%
2/11/2020Mackay Shields LLC96,063$1.86M0.0%-48.2%0.223%
(Data available from 1/1/2016 forward)
This page was last updated on 6/7/2020 by MarketBeat.com Staff

Enter your email address below to receive a concise daily summary of analysts' upgrades, downgrades and new coverage with MarketBeat.com's FREE daily email newsletter.